createdAt,value
2022-10-06T00:00:24.805Z,9.09
2022-10-06T00:02:56.627Z,9.12
2022-10-06T00:05:28.379Z,9.10
2022-10-06T00:07:58.040Z,9.06
2022-10-06T00:10:30.322Z,9.00
2022-10-06T00:12:59.574Z,8.93
2022-10-06T00:15:30.802Z,8.85
2022-10-06T00:18:03.090Z,8.77
2022-10-06T00:20:37.582Z,8.75
2022-10-06T00:23:08.866Z,8.76
2022-10-06T00:25:41.169Z,8.73
2022-10-06T00:28:10.561Z,8.67
2022-10-06T00:30:41.084Z,8.61
2022-10-06T00:33:13.733Z,8.54
2022-10-06T00:35:44.527Z,8.45
2022-10-06T00:38:17.488Z,8.39
2022-10-06T00:40:51.937Z,8.38
2022-10-06T00:43:59.568Z,8.41
2022-10-06T00:46:31.788Z,8.39
2022-10-06T00:49:29.093Z,8.34
2022-10-06T00:52:17.689Z,8.26
2022-10-06T00:54:46.665Z,8.18
2022-10-06T00:57:15.637Z,8.13
2022-10-06T00:59:44.719Z,8.13
2022-10-06T01:02:55.395Z,8.17
2022-10-06T01:05:31.989Z,8.17
2022-10-06T01:08:02.385Z,8.12
2022-10-06T01:10:31.591Z,8.04
2022-10-06T01:13:00.512Z,7.98
2022-10-06T01:15:29.920Z,7.92
2022-10-06T01:18:02.894Z,7.85
2022-10-06T01:20:31.860Z,7.84
2022-10-06T01:23:10.799Z,7.84
2022-10-06T01:25:42.148Z,7.85
2022-10-06T01:28:11.160Z,7.83
2022-10-06T01:30:46.967Z,7.78
2022-10-06T01:33:21.414Z,7.73
2022-10-06T01:35:52.266Z,7.66
2022-10-06T01:38:22.550Z,7.60
2022-10-06T01:40:54.981Z,7.62
2022-10-06T01:43:25.154Z,7.67
2022-10-06T01:45:59.191Z,7.68
2022-10-06T01:48:28.339Z,7.66
2022-10-06T01:50:59.479Z,7.62
2022-10-06T01:53:28.112Z,7.57
2022-10-06T01:56:00.858Z,7.53
2022-10-06T01:58:31.178Z,7.48
2022-10-06T02:01:04.397Z,7.48
2022-10-06T02:03:34.079Z,7.52
2022-10-06T02:06:03.765Z,7.51
2022-10-06T02:08:34.401Z,7.48
2022-10-06T02:11:10.027Z,7.44
2022-10-06T02:13:45.279Z,7.38
2022-10-06T02:16:15.269Z,7.33
2022-10-06T02:18:44.845Z,7.27
2022-10-06T02:21:19.536Z,7.30
2022-10-06T02:23:49.375Z,7.34
2022-10-06T02:26:18.361Z,7.34
2022-10-06T02:28:48.251Z,7.30
2022-10-06T02:31:20.894Z,7.27
2022-10-06T02:33:51.339Z,7.22
2022-10-06T02:36:22.374Z,7.16
2022-10-06T02:38:52.660Z,7.12
2022-10-06T02:41:21.644Z,7.13
2022-10-06T02:43:50.701Z,7.18
2022-10-06T02:46:20.116Z,7.19
2022-10-06T02:48:51.958Z,7.17
2022-10-06T02:51:22.838Z,7.13
2022-10-06T02:53:51.776Z,7.08
2022-10-06T02:56:22.752Z,7.01
2022-10-06T02:58:52.393Z,6.96
2022-10-06T03:01:26.694Z,6.97
2022-10-06T03:03:57.258Z,7.01
2022-10-06T03:06:28.764Z,7.01
2022-10-06T03:09:07.860Z,6.98
2022-10-06T03:11:39.054Z,6.93
2022-10-06T03:14:08.249Z,6.88
2022-10-06T03:16:39.801Z,6.83
2022-10-06T03:19:11.983Z,6.84
2022-10-06T03:21:44.480Z,6.88
2022-10-06T03:24:13.848Z,6.89
2022-10-06T03:26:45.023Z,6.87
2022-10-06T03:29:17.169Z,6.83
2022-10-06T03:31:52.024Z,6.80
2022-10-06T03:34:22.390Z,6.75
2022-10-06T03:36:51.677Z,6.70
2022-10-06T03:39:22.502Z,6.71
2022-10-06T03:41:51.652Z,6.76
2022-10-06T03:44:23.893Z,6.78
2022-10-06T03:46:55.303Z,6.75
2022-10-06T03:49:24.635Z,6.71
2022-10-06T03:51:56.952Z,6.67
2022-10-06T03:54:30.230Z,6.63
2022-10-06T03:57:01.322Z,6.57
2022-10-06T03:59:34.883Z,6.60
2022-10-06T04:02:06.054Z,6.65
2022-10-06T04:04:39.139Z,6.66
2022-10-06T04:07:12.745Z,6.63
2022-10-06T04:09:41.895Z,6.60
2022-10-06T04:12:12.002Z,6.55
2022-10-06T04:14:41.959Z,6.51
2022-10-06T04:17:11.441Z,6.46
2022-10-06T04:19:42.617Z,6.47
2022-10-06T04:22:11.714Z,6.52
2022-10-06T04:24:40.883Z,6.53
2022-10-06T04:27:28.209Z,6.51
2022-10-06T04:30:04.459Z,6.47
2022-10-06T04:32:35.585Z,6.42
2022-10-06T04:35:05.209Z,6.39
2022-10-06T04:37:34.637Z,6.35
2022-10-06T04:40:04.326Z,6.36
2022-10-06T04:42:36.181Z,6.41
2022-10-06T04:45:08.832Z,6.43
2022-10-06T04:47:38.685Z,6.43
2022-10-06T04:50:10.597Z,6.40
2022-10-06T04:52:45.733Z,6.37
2022-10-06T04:55:15.085Z,6.36
2022-10-06T04:57:44.488Z,6.41
2022-10-06T05:03:20.790Z,6.57
2022-10-06T05:05:47.985Z,6.57
2022-10-06T05:08:15.199Z,6.57
2022-10-06T05:10:42.725Z,6.57
2022-10-06T05:13:11.731Z,6.57
2022-10-06T05:19:00.554Z,6.78
2022-10-06T05:21:48.381Z,6.84
2022-10-06T05:24:37.353Z,6.89
2022-10-06T05:27:21.313Z,6.93
2022-10-06T05:29:49.651Z,6.96
2022-10-06T05:32:17.708Z,6.98
2022-10-06T05:34:44.990Z,7.06
2022-10-06T05:37:12.084Z,7.18
2022-10-06T05:39:39.599Z,7.27
2022-10-06T05:42:07.437Z,7.32
2022-10-06T05:44:34.524Z,7.37
2022-10-06T05:47:06.447Z,7.40
2022-10-06T05:49:35.129Z,7.44
2022-10-06T05:52:04.122Z,7.54
2022-10-06T05:54:46.690Z,7.69
2022-10-06T05:57:22.801Z,7.83
2022-10-06T05:59:49.944Z,7.93
2022-10-06T06:02:18.167Z,8.03
2022-10-06T06:04:45.675Z,8.13
2022-10-06T06:07:13.375Z,8.25
2022-10-06T06:09:42.532Z,8.44
2022-10-06T06:12:09.682Z,8.64
2022-10-06T06:14:59.667Z,8.82
2022-10-06T06:17:32.344Z,9.03
2022-10-06T06:20:00.105Z,9.20
2022-10-06T06:22:27.159Z,9.39
2022-10-06T06:24:54.422Z,9.57
2022-10-06T06:27:21.662Z,9.83
2022-10-06T06:29:48.709Z,10.13
2022-10-06T06:32:16.780Z,10.40
2022-10-06T06:34:44.148Z,10.64
2022-10-06T06:37:15.070Z,10.87
2022-10-06T06:39:45.599Z,11.11
2022-10-06T06:42:12.749Z,11.29
2022-10-06T06:44:41.637Z,11.43
2022-10-06T06:47:28.445Z,11.53
2022-10-06T06:50:10.500Z,11.60
2022-10-06T06:52:39.541Z,11.74
2022-10-06T06:55:09.046Z,11.89
2022-10-06T06:57:36.503Z,12.02
2022-10-06T07:00:08.772Z,12.18
2022-10-06T07:02:37.865Z,12.35
2022-10-06T07:05:05.834Z,12.52
2022-10-06T07:07:32.985Z,12.69
2022-10-06T07:10:00.663Z,12.89
2022-10-06T07:12:31.563Z,13.12
2022-10-06T07:15:19.120Z,13.40
2022-10-06T07:18:09.196Z,13.82
2022-10-06T07:20:58.380Z,14.22
2022-10-06T07:23:44.365Z,14.57
2022-10-06T07:26:15.703Z,14.91
2022-10-06T07:28:45.852Z,15.22
2022-10-06T07:31:19.478Z,15.52
2022-10-06T07:33:47.902Z,15.80
2022-10-06T07:36:16.604Z,16.08
2022-10-06T07:38:44.457Z,16.37
2022-10-06T07:41:19.989Z,16.66
2022-10-06T07:43:54.242Z,17.01
2022-10-06T07:46:22.720Z,17.33
2022-10-06T07:49:22.207Z,17.71
2022-10-06T07:51:54.175Z,18.02
2022-10-06T07:54:26.509Z,18.33
2022-10-06T07:57:07.827Z,18.64
2022-10-06T07:59:36.047Z,18.91
2022-10-06T08:02:03.309Z,19.16
2022-10-06T08:04:30.499Z,19.44
2022-10-06T08:06:58.670Z,19.78
2022-10-06T08:09:25.600Z,20.11
2022-10-06T08:11:53.277Z,20.42
2022-10-06T08:14:20.329Z,20.67
2022-10-06T08:16:47.473Z,20.93
2022-10-06T08:19:14.930Z,21.22
2022-10-06T08:21:41.920Z,21.54
2022-10-06T08:24:10.047Z,21.86
2022-10-06T08:26:37.123Z,22.14
2022-10-06T08:29:09.171Z,22.37
2022-10-06T08:31:36.365Z,22.56
2022-10-06T08:34:03.439Z,22.68
2022-10-06T08:36:32.375Z,22.78
2022-10-06T08:39:01.147Z,22.97
2022-10-06T08:41:34.249Z,23.25
2022-10-06T08:44:18.790Z,23.57
2022-10-06T08:46:52.001Z,23.89
2022-10-06T08:49:20.561Z,24.15
2022-10-06T08:52:03.075Z,24.39
2022-10-06T08:54:59.814Z,24.61
2022-10-06T08:57:31.674Z,24.74
2022-10-06T08:59:59.434Z,24.86
2022-10-06T09:02:28.528Z,25.00
2022-10-06T09:04:58.292Z,25.16
2022-10-06T09:07:32.974Z,25.35
2022-10-06T09:10:18.552Z,25.57
2022-10-06T09:12:48.357Z,25.77
2022-10-06T09:15:15.314Z,25.96
2022-10-06T09:17:50.523Z,26.19
2022-10-06T09:20:23.040Z,26.47
2022-10-06T09:22:50.891Z,26.71
2022-10-06T09:25:22.602Z,26.90
2022-10-06T09:27:57.295Z,27.13
2022-10-06T09:30:24.948Z,27.38
2022-10-06T09:32:59.010Z,27.64
2022-10-06T09:35:30.413Z,27.88
2022-10-06T09:38:08.718Z,28.08
2022-10-06T09:40:37.813Z,28.29
2022-10-06T09:43:16.921Z,28.51
2022-10-06T09:45:44.293Z,28.74
2022-10-06T09:48:25.418Z,28.91
2022-10-06T09:51:15.629Z,29.03
2022-10-06T09:53:43.530Z,29.20
2022-10-06T09:56:19.023Z,29.39
2022-10-06T09:58:56.772Z,29.61
2022-10-06T10:01:33.955Z,29.78
2022-10-06T10:04:21.511Z,29.88
2022-10-06T10:06:50.173Z,29.95
2022-10-06T10:09:35.603Z,30.03
2022-10-06T10:12:30.548Z,30.16
2022-10-06T10:15:24.015Z,30.33
2022-10-06T10:18:06.115Z,30.54
2022-10-06T10:20:37.362Z,30.73
2022-10-06T10:23:31.135Z,30.83
2022-10-06T10:26:21.472Z,30.84
2022-10-06T10:28:52.063Z,30.90
2022-10-06T10:31:39.377Z,30.97
2022-10-06T10:34:28.255Z,30.99
2022-10-06T10:37:18.139Z,31.00
2022-10-06T10:39:54.535Z,31.01
2022-10-06T10:42:40.324Z,31.08
2022-10-06T10:45:21.601Z,31.18
2022-10-06T11:00:52.280Z,32.70
2022-10-06T11:03:19.673Z,32.95
2022-10-06T11:05:55.850Z,32.84
2022-10-06T11:08:39.990Z,32.67
2022-10-06T11:11:17.644Z,32.53
2022-10-06T11:13:49.849Z,32.39
2022-10-06T11:16:38.794Z,32.27
2022-10-06T11:19:43.233Z,32.23
2022-10-06T11:22:18.576Z,32.12
2022-10-06T11:24:53.254Z,32.03
2022-10-06T11:27:44.988Z,31.93
2022-10-06T11:30:18.552Z,31.90
2022-10-06T11:32:47.828Z,31.80
2022-10-06T11:35:27.272Z,31.73
2022-10-06T11:38:05.065Z,31.68
2022-10-06T11:41:00.782Z,31.56
2022-10-06T11:43:47.910Z,31.39
2022-10-06T11:46:44.171Z,31.20
2022-10-06T11:49:31.964Z,30.96
2022-10-06T11:52:08.901Z,30.71
2022-10-06T11:54:48.693Z,30.55
2022-10-06T11:57:30.863Z,30.42
2022-10-06T12:00:06.733Z,30.28
2022-10-06T12:02:37.457Z,30.14
2022-10-06T12:05:35.665Z,30.01
2022-10-06T12:07:58.224Z,29.85
2022-10-06T12:10:32.894Z,29.65
2022-10-06T12:14:09.077Z,29.45
2022-10-06T12:19:25.208Z,28.92
2022-10-06T12:21:53.451Z,28.70
2022-10-06T12:24:53.093Z,28.54
2022-10-06T12:27:35.602Z,28.35
2022-10-06T12:30:06.231Z,28.22
2022-10-06T12:32:42.905Z,28.07
2022-10-06T12:35:25.623Z,27.92
2022-10-06T12:37:54.704Z,27.74
2022-10-06T12:40:41.327Z,27.54
2022-10-06T12:43:23.627Z,27.30
2022-10-06T12:46:16.589Z,27.11
2022-10-06T12:48:47.004Z,26.95
2022-10-06T12:51:39.293Z,26.85
2022-10-06T12:54:10.490Z,26.74
2022-10-06T12:56:39.689Z,26.65
2022-10-06T12:59:25.983Z,26.57
2022-10-06T13:02:04.861Z,26.43
2022-10-06T13:04:45.787Z,26.29
2022-10-06T13:07:22.326Z,26.20
2022-10-06T13:09:55.746Z,26.13
2022-10-06T13:12:26.819Z,26.06
2022-10-06T13:15:25.546Z,26.01
2022-10-06T13:18:08.317Z,25.92
2022-10-06T13:20:38.448Z,25.83
2022-10-06T13:23:10.275Z,25.70
2022-10-06T13:25:45.518Z,25.57
2022-10-06T13:28:23.546Z,25.46
2022-10-06T13:30:59.110Z,25.35
2022-10-06T13:33:47.478Z,25.25
2022-10-06T13:36:14.526Z,25.09
2022-10-06T13:38:42.095Z,24.94
2022-10-06T13:41:25.522Z,24.84
2022-10-06T13:44:11.830Z,24.72
2022-10-06T13:46:42.419Z,24.57
2022-10-06T13:49:23.027Z,24.44
2022-10-06T13:51:52.309Z,24.28
2022-10-06T13:54:31.669Z,24.12
2022-10-06T13:56:59.003Z,23.94
2022-10-06T13:59:29.327Z,23.77
2022-10-06T14:01:57.884Z,23.60
2022-10-06T14:04:25.572Z,23.44
2022-10-06T14:06:57.873Z,23.25
2022-10-06T14:09:31.329Z,23.07
2022-10-06T14:12:03.804Z,22.92
2022-10-06T14:14:30.857Z,22.76
2022-10-06T14:16:58.539Z,22.64
2022-10-06T14:19:37.752Z,22.52
2022-10-06T14:22:05.519Z,22.35
2022-10-06T14:24:37.787Z,22.22
2022-10-06T14:27:06.563Z,22.08
2022-10-06T14:29:34.569Z,21.99
2022-10-06T14:32:28.116Z,21.90
2022-10-06T14:34:55.364Z,21.78
2022-10-06T14:37:23.916Z,21.68
2022-10-06T14:39:52.339Z,21.54
2022-10-06T14:42:24.745Z,21.40
2022-10-06T14:44:51.956Z,21.25
2022-10-06T14:47:20.145Z,21.12
2022-10-06T14:49:48.399Z,21.00
2022-10-06T14:52:15.551Z,20.87
2022-10-06T14:54:43.526Z,20.76
2022-10-06T14:57:10.715Z,20.66
2022-10-06T14:59:38.022Z,20.56
2022-10-06T15:02:05.284Z,20.47
2022-10-06T15:04:32.850Z,20.38
2022-10-06T15:07:19.542Z,20.30
2022-10-06T15:09:46.640Z,20.20
2022-10-06T15:12:14.809Z,20.11
2022-10-06T15:14:42.426Z,20.02
2022-10-06T15:17:09.886Z,19.92
2022-10-06T15:19:37.445Z,19.81
2022-10-06T15:22:06.638Z,19.69
2022-10-06T15:28:54.573Z,19.42
2022-10-06T15:34:40.284Z,19.07
2022-10-06T15:37:15.806Z,18.89
2022-10-06T15:39:44.062Z,18.72
2022-10-06T15:42:11.168Z,18.56
2022-10-06T15:45:10.375Z,18.40
2022-10-06T15:47:37.674Z,18.23
2022-10-06T15:50:04.940Z,18.08
2022-10-06T15:52:34.011Z,17.96
2022-10-06T15:55:01.085Z,17.86
2022-10-06T15:57:30.304Z,17.76
2022-10-06T15:59:57.359Z,17.69
2022-10-06T16:02:24.934Z,17.63
2022-10-06T16:04:55.331Z,17.56
2022-10-06T16:07:22.413Z,17.50
2022-10-06T16:09:50.598Z,17.54
2022-10-06T16:12:19.491Z,17.59
2022-10-06T16:14:46.579Z,17.63
2022-10-06T16:17:13.936Z,17.64
2022-10-06T16:19:41.234Z,17.62
2022-10-06T16:22:09.650Z,17.59
2022-10-06T16:24:36.898Z,17.56
2022-10-06T16:27:04.338Z,17.49
2022-10-06T16:29:31.374Z,17.42
2022-10-06T16:31:59.577Z,17.36
2022-10-06T16:34:26.759Z,17.30
2022-10-06T16:36:53.846Z,17.21
2022-10-06T16:39:22.097Z,17.12
2022-10-06T16:41:49.320Z,17.05
2022-10-06T16:44:16.537Z,17.02
2022-10-06T16:46:43.747Z,17.04
2022-10-06T16:49:13.376Z,17.02
2022-10-06T16:51:44.153Z,17.00
2022-10-06T16:54:12.535Z,16.95
2022-10-06T16:56:44.171Z,16.90
2022-10-06T16:59:12.047Z,16.85
2022-10-06T17:01:39.176Z,16.83
2022-10-06T17:04:13.298Z,16.81
2022-10-06T17:06:41.789Z,16.77
2022-10-06T17:09:14.572Z,16.75
2022-10-06T17:11:49.602Z,16.79
2022-10-06T17:14:17.086Z,16.85
2022-10-06T17:16:47.174Z,16.86
2022-10-06T17:19:15.189Z,16.85
2022-10-06T17:21:47.451Z,16.82
2022-10-06T17:24:17.997Z,16.81
2022-10-06T17:26:47.547Z,16.80
2022-10-06T17:29:19.274Z,16.77
2022-10-06T17:31:46.842Z,16.73
2022-10-06T17:34:20.453Z,16.70
2022-10-06T17:36:49.247Z,16.73
2022-10-06T17:39:18.327Z,16.80
2022-10-06T17:41:45.814Z,16.83
2022-10-06T17:44:14.418Z,16.84
2022-10-06T17:46:45.583Z,16.85
2022-10-06T17:49:15.063Z,16.86
2022-10-06T17:51:43.805Z,16.86
2022-10-06T17:54:13.291Z,16.85
2022-10-06T17:56:40.465Z,16.84
2022-10-06T17:59:09.132Z,16.87
2022-10-06T18:01:36.200Z,16.93
2022-10-06T18:04:04.493Z,16.95
2022-10-06T18:06:36.190Z,16.97
2022-10-06T18:09:04.560Z,16.97
2022-10-06T18:11:34.328Z,16.93
2022-10-06T18:14:07.606Z,16.88
2022-10-06T18:16:36.828Z,16.80
2022-10-06T18:19:17.952Z,16.72
2022-10-06T18:21:46.400Z,16.62
2022-10-06T18:24:21.297Z,16.60
2022-10-06T18:26:49.448Z,16.59
2022-10-06T18:29:17.623Z,16.54
2022-10-06T18:31:44.862Z,16.49
2022-10-06T18:37:02.365Z,16.36
2022-10-06T18:39:31.562Z,16.28
2022-10-06T18:42:02.575Z,16.19
2022-10-06T18:44:48.493Z,16.17
2022-10-06T18:47:34.014Z,16.16
2022-10-06T18:50:01.181Z,16.12
2022-10-06T18:52:28.191Z,16.06
2022-10-06T18:54:55.169Z,16.00
2022-10-06T18:57:27.262Z,15.94
2022-10-06T18:59:55.301Z,15.83
2022-10-06T19:02:22.439Z,15.72
2022-10-06T19:04:49.910Z,15.67
2022-10-06T19:07:17.615Z,15.66
2022-10-06T19:09:46.823Z,15.65
2022-10-06T19:12:14.189Z,15.63
2022-10-06T19:14:47.602Z,15.60
2022-10-06T19:17:15.244Z,15.57
2022-10-06T19:19:43.070Z,15.52
2022-10-06T19:22:10.131Z,15.50
2022-10-06T19:24:42.750Z,15.54
2022-10-06T19:27:12.699Z,15.62
2022-10-06T19:29:42.592Z,15.63
2022-10-06T19:32:09.774Z,15.63
2022-10-06T19:34:37.491Z,15.62
2022-10-06T19:37:05.084Z,15.60
2022-10-06T19:39:40.214Z,15.60
2022-10-06T19:42:25.839Z,15.66
2022-10-06T19:44:52.869Z,15.79
2022-10-06T19:47:20.093Z,15.87
2022-10-06T19:49:47.426Z,15.93
2022-10-06T19:52:14.861Z,15.91
2022-10-06T19:54:42.259Z,15.84
2022-10-06T19:57:11.519Z,15.79
2022-10-06T19:59:38.843Z,15.81
2022-10-06T20:02:08.818Z,15.84
2022-10-06T20:04:36.225Z,15.85
2022-10-06T20:07:03.673Z,15.82
2022-10-06T20:09:40.630Z,15.79
2022-10-06T20:12:07.532Z,15.74
2022-10-06T20:14:34.635Z,15.68
2022-10-06T20:17:02.911Z,15.64
2022-10-06T20:19:29.914Z,15.67
2022-10-06T20:21:56.879Z,15.74
2022-10-06T20:24:24.751Z,15.78
2022-10-06T20:26:52.594Z,15.80
2022-10-06T20:29:25.238Z,15.82
2022-10-06T20:31:56.678Z,15.80
2022-10-06T20:34:26.461Z,15.75
2022-10-06T20:36:56.137Z,15.75
2022-10-06T20:39:42.873Z,15.78
2022-10-06T20:42:15.323Z,15.77
2022-10-06T20:44:43.252Z,15.72
2022-10-06T20:47:11.272Z,15.68
2022-10-06T20:49:38.403Z,15.63
2022-10-06T20:52:06.321Z,15.58
2022-10-06T20:54:36.111Z,15.59
2022-10-06T20:57:04.418Z,15.59
2022-10-06T20:59:31.737Z,15.55
2022-10-06T21:02:01.790Z,15.48
2022-10-06T21:04:29.384Z,15.36
2022-10-06T21:06:56.497Z,15.25
2022-10-06T21:09:24.599Z,15.14
2022-10-06T21:11:51.718Z,15.02
2022-10-06T21:14:18.774Z,14.97
2022-10-06T21:16:46.743Z,14.96
2022-10-06T21:19:18.025Z,14.91
2022-10-06T21:21:46.154Z,14.85
2022-10-06T21:24:13.541Z,14.79
2022-10-06T21:26:42.590Z,14.72
2022-10-06T21:29:14.261Z,14.66
2022-10-06T21:31:41.630Z,14.66
2022-10-06T21:34:08.718Z,14.69
2022-10-06T21:36:35.684Z,14.71
2022-10-06T21:39:04.743Z,14.71
2022-10-06T21:41:36.113Z,14.71
2022-10-06T21:44:06.947Z,14.71
2022-10-06T21:46:40.054Z,14.77
2022-10-06T21:49:12.288Z,14.84
2022-10-06T21:51:40.046Z,14.88
2022-10-06T21:54:07.303Z,14.89
2022-10-06T21:56:34.322Z,14.89
2022-10-06T21:59:01.525Z,14.89
2022-10-06T22:01:30.715Z,14.96
2022-10-06T22:03:58.630Z,15.04
2022-10-06T22:06:25.738Z,15.07
2022-10-06T22:08:52.882Z,15.07
2022-10-06T22:11:22.024Z,15.06
2022-10-06T22:13:50.469Z,15.05
2022-10-06T22:16:19.487Z,15.09
2022-10-06T22:18:46.673Z,15.14
2022-10-06T22:21:18.135Z,15.15
2022-10-06T22:23:46.242Z,15.13
2022-10-06T22:26:14.128Z,15.11
2022-10-06T22:28:47.756Z,15.07
2022-10-06T22:31:15.429Z,15.11
2022-10-06T22:33:42.706Z,15.16
2022-10-06T22:36:11.284Z,15.18
2022-10-06T22:38:38.524Z,15.16
2022-10-06T22:41:07.218Z,15.14
2022-10-06T22:43:34.424Z,15.12
2022-10-06T22:46:01.580Z,15.14
2022-10-06T22:48:28.702Z,15.19
2022-10-06T22:50:55.757Z,15.22
2022-10-06T22:53:23.896Z,15.21
2022-10-06T22:55:51.068Z,15.18
2022-10-06T22:58:18.513Z,15.15
2022-10-06T23:00:45.697Z,15.18
2022-10-06T23:03:12.900Z,15.23
2022-10-06T23:08:10.747Z,15.27
2022-10-06T23:10:37.891Z,15.23
2022-10-06T23:13:04.936Z,15.19
2022-10-06T23:15:32.026Z,15.19
2022-10-06T23:17:59.030Z,15.20
2022-10-06T23:20:26.125Z,15.18
2022-10-06T23:22:55.568Z,15.14
2022-10-06T23:25:26.995Z,15.10
2022-10-06T23:27:54.490Z,15.06
2022-10-06T23:30:21.647Z,15.06
2022-10-06T23:32:48.792Z,15.08
2022-10-06T23:35:15.941Z,15.07
2022-10-06T23:37:43.046Z,15.04
2022-10-06T23:40:11.060Z,15.01
2022-10-06T23:42:38.141Z,14.98
2022-10-06T23:45:07.793Z,15.00
2022-10-06T23:47:34.975Z,15.04
2022-10-06T23:50:02.009Z,15.05
2022-10-06T23:52:29.182Z,15.04
2022-10-06T23:54:56.277Z,15.00
2022-10-06T23:57:23.356Z,14.96
2022-10-06T23:59:50.411Z,14.98
